sensor_id;sensor_type;location;lat;lon;timestamp;pressure;altitude;pressure_sealevel;temperature;humidity
77583;BME280;66726;52.388;9.986;2023-01-31T00:01:58;101215.88;;;3.27;81.47
77583;BME280;66726;52.388;9.986;2023-01-31T00:04:27;101224.31;;;3.20;81.33
77583;BME280;66726;52.388;9.986;2023-01-31T00:06:55;101218.38;;;3.16;81.85
77583;BME280;66726;52.388;9.986;2023-01-31T00:09:23;101231.53;;;3.18;82.38
77583;BME280;66726;52.388;9.986;2023-01-31T00:11:51;101232.19;;;3.21;82.11
77583;BME280;66726;52.388;9.986;2023-01-31T00:14:21;101221.03;;;3.16;82.26
77583;BME280;66726;52.388;9.986;2023-01-31T00:16:50;101226.31;;;3.16;81.89
77583;BME280;66726;52.388;9.986;2023-01-31T00:19:19;101231.72;;;3.15;81.71
77583;BME280;66726;52.388;9.986;2023-01-31T00:21:47;101236.81;;;3.18;81.55
77583;BME280;66726;52.388;9.986;2023-01-31T00:24:15;101235.47;;;3.25;80.70
77583;BME280;66726;52.388;9.986;2023-01-31T00:26:43;101228.56;;;3.22;81.09
77583;BME280;66726;52.388;9.986;2023-01-31T00:29:12;101237.47;;;3.21;81.95
77583;BME280;66726;52.388;9.986;2023-01-31T00:31:41;101242.56;;;3.24;81.82
77583;BME280;66726;52.388;9.986;2023-01-31T00:34:10;101245.94;;;3.26;81.69
77583;BME280;66726;52.388;9.986;2023-01-31T00:36:40;101239.34;;;3.19;82.18
77583;BME280;66726;52.388;9.986;2023-01-31T00:39:09;101241.25;;;3.17;82.42
77583;BME280;66726;52.388;9.986;2023-01-31T00:41:38;101248.25;;;3.18;82.14
77583;BME280;66726;52.388;9.986;2023-01-31T00:44:06;101250.34;;;3.13;83.06
77583;BME280;66726;52.388;9.986;2023-01-31T00:46:35;101256.28;;;3.17;82.39
77583;BME280;66726;52.388;9.986;2023-01-31T00:49:05;101258.84;;;3.18;82.38
77583;BME280;66726;52.388;9.986;2023-01-31T00:51:33;101246.56;;;3.17;82.08
77583;BME280;66726;52.388;9.986;2023-01-31T00:54:01;101260.31;;;3.22;82.37
77583;BME280;66726;52.388;9.986;2023-01-31T00:56:29;101256.00;;;3.21;82.60
77583;BME280;66726;52.388;9.986;2023-01-31T00:58:58;101259.94;;;3.28;81.60
77583;BME280;66726;52.388;9.986;2023-01-31T01:01:28;101263.50;;;3.27;82.50
77583;BME280;66726;52.388;9.986;2023-01-31T01:03:57;101266.91;;;3.29;81.50
77583;BME280;66726;52.388;9.986;2023-01-31T01:06:27;101273.91;;;3.30;81.51
77583;BME280;66726;52.388;9.986;2023-01-31T01:08:56;101273.91;;;3.30;82.37
77583;BME280;66726;52.388;9.986;2023-01-31T01:11:28;101272.97;;;3.31;81.63
77583;BME280;66726;52.388;9.986;2023-01-31T01:13:59;101277.28;;;3.32;82.14
77583;BME280;66726;52.388;9.986;2023-01-31T01:16:33;101282.56;;;3.32;82.10
77583;BME280;66726;52.388;9.986;2023-01-31T01:19:05;101296.13;;;3.28;82.28
77583;BME280;66726;52.388;9.986;2023-01-31T01:21:34;101303.28;;;3.26;83.23
77583;BME280;66726;52.388;9.986;2023-01-31T01:24:07;101312.28;;;3.23;83.02
77583;BME280;66726;52.388;9.986;2023-01-31T01:26:38;101313.44;;;3.19;83.30
77583;BME280;66726;52.388;9.986;2023-01-31T01:29:06;101313.44;;;3.19;83.77
77583;BME280;66726;52.388;9.986;2023-01-31T01:31:37;101310.41;;;3.25;83.27
77583;BME280;66726;52.388;9.986;2023-01-31T01:34:07;101323.72;;;3.24;83.75
77583;BME280;66726;52.388;9.986;2023-01-31T01:36:39;101323.81;;;3.22;84.28
77583;BME280;66726;52.388;9.986;2023-01-31T01:39:10;101317.88;;;3.19;84.50
77583;BME280;66726;52.388;9.986;2023-01-31T01:41:39;101317.03;;;3.18;84.79
77583;BME280;66726;52.388;9.986;2023-01-31T01:44:44;101319.88;;;3.15;84.88
77583;BME280;66726;52.388;9.986;2023-01-31T01:47:39;101311.94;;;3.15;84.83
77583;BME280;66726;52.388;9.986;2023-01-31T01:50:17;101318.91;;;3.16;84.79
77583;BME280;66726;52.388;9.986;2023-01-31T01:52:55;101317.41;;;3.12;84.20
77583;BME280;66726;52.388;9.986;2023-01-31T01:55:31;101310.25;;;3.14;84.45
77583;BME280;66726;52.388;9.986;2023-01-31T01:58:04;101320.91;;;3.13;83.65
77583;BME280;66726;52.388;9.986;2023-01-31T02:00:36;101317.13;;;3.17;84.00
77583;BME280;66726;52.388;9.986;2023-01-31T02:03:07;101321.03;;;3.11;84.08
77583;BME280;66726;52.388;9.986;2023-01-31T02:05:41;101328.19;;;3.09;84.07
77583;BME280;66726;52.388;9.986;2023-01-31T02:08:14;101321.41;;;3.05;85.00
77583;BME280;66726;52.388;9.986;2023-01-31T02:10:49;101326.69;;;3.05;84.42
77583;BME280;66726;52.388;9.986;2023-01-31T02:13:21;101329.44;;;3.03;84.43
77583;BME280;66726;52.388;9.986;2023-01-31T02:15:50;101329.53;;;3.02;84.42
77583;BME280;66726;52.388;9.986;2023-01-31T02:18:21;101323.72;;;2.97;84.54
77583;BME280;66726;52.388;9.986;2023-01-31T02:21:35;101330.69;;;2.98;84.65
77583;BME280;66726;52.388;9.986;2023-01-31T02:28:06;101321.59;;;3.02;85.07
77583;BME280;66726;52.388;9.986;2023-01-31T02:34:12;101323.09;;;3.06;85.51
77583;BME280;66726;52.388;9.986;2023-01-31T02:36:57;101322.06;;;3.08;84.69
77583;BME280;66726;52.388;9.986;2023-01-31T02:39:40;101328.19;;;3.09;85.07
77583;BME280;66726;52.388;9.986;2023-01-31T02:42:22;101334.47;;;3.08;85.38
77583;BME280;66726;52.388;9.986;2023-01-31T02:45:03;101349.38;;;3.09;84.50
77583;BME280;66726;52.388;9.986;2023-01-31T02:48:01;101352.78;;;3.11;84.62
77583;BME280;66726;52.388;9.986;2023-01-31T02:50:43;101350.03;;;3.13;85.01
77583;BME280;66726;52.388;9.986;2023-01-31T02:53:21;101365.03;;;3.12;84.86
77583;BME280;66726;52.388;9.986;2023-01-31T02:56:00;101350.88;;;3.13;85.33
77583;BME280;66726;52.388;9.986;2023-01-31T02:58:55;101361.25;;;3.16;85.01
77583;BME280;66726;52.388;9.986;2023-01-31T03:01:29;101369.31;;;3.15;86.00
77583;BME280;66726;52.388;9.986;2023-01-31T03:04:03;101363.16;;;3.14;85.84
77583;BME280;66726;52.388;9.986;2023-01-31T03:06:50;101353.63;;;3.12;85.98
77583;BME280;66726;52.388;9.986;2023-01-31T03:09:40;101357.69;;;3.17;86.13
77583;BME280;66726;52.388;9.986;2023-01-31T03:12:42;101361.56;;;3.12;86.98
77583;BME280;66726;52.388;9.986;2023-01-31T03:15:33;101358.06;;;3.11;87.68
77583;BME280;66726;52.388;9.986;2023-01-31T03:18:27;101359.09;;;3.08;88.05
77583;BME280;66726;52.388;9.986;2023-01-31T03:21:02;101360.91;;;3.08;88.48
77583;BME280;66726;52.388;9.986;2023-01-31T03:23:35;101366.38;;;3.05;89.18
77583;BME280;66726;52.388;9.986;2023-01-31T03:26:06;101360.25;;;3.04;88.71
77583;BME280;66726;52.388;9.986;2023-01-31T03:28:37;101350.50;;;3.05;88.24
77583;BME280;66726;52.388;9.986;2023-01-31T03:31:15;101354.84;;;3.06;88.91
77583;BME280;66726;52.388;9.986;2023-01-31T03:33:50;101341.91;;;3.01;88.68
77583;BME280;66726;52.388;9.986;2023-01-31T03:36:29;101336.44;;;3.04;88.18
77583;BME280;66726;52.388;9.986;2023-01-31T03:39:12;101344.19;;;3.08;88.41
77583;BME280;66726;52.388;9.986;2023-01-31T03:41:55;101340.69;;;3.07;88.27
77583;BME280;66726;52.388;9.986;2023-01-31T03:44:37;101345.41;;;3.02;87.72
77583;BME280;66726;52.388;9.986;2023-01-31T03:47:13;101335.59;;;3.04;87.37
77583;BME280;66726;52.388;9.986;2023-01-31T03:49:47;101327.84;;;3.01;87.75
77583;BME280;66726;52.388;9.986;2023-01-31T03:52:23;101332.38;;;2.99;87.72
77583;BME280;66726;52.388;9.986;2023-01-31T03:55:02;101334.47;;;2.94;87.69
77583;BME280;66726;52.388;9.986;2023-01-31T03:57:36;101330.88;;;2.95;87.63
77583;BME280;66726;52.388;9.986;2023-01-31T04:00:12;101318.31;;;2.98;86.68
77583;BME280;66726;52.388;9.986;2023-01-31T04:02:41;101324.66;;;2.96;86.63
77583;BME280;66726;52.388;9.986;2023-01-31T04:05:14;101320.50;;;2.92;86.81
77583;BME280;66726;52.388;9.986;2023-01-31T04:07:45;101318.97;;;2.88;86.82
77583;BME280;66726;52.388;9.986;2023-01-31T04:10:17;101313.81;;;2.86;87.16
77583;BME280;66726;52.388;9.986;2023-01-31T04:12:46;101326.19;;;2.86;86.98
77583;BME280;66726;52.388;9.986;2023-01-31T04:15:14;101324.47;;;2.85;86.60
77583;BME280;66726;52.388;9.986;2023-01-31T04:17:42;101320.22;;;2.82;86.54
77583;BME280;66726;52.388;9.986;2023-01-31T04:20:11;101319.38;;;2.82;86.77
77583;BME280;66726;52.388;9.986;2023-01-31T04:22:40;101323.16;;;2.78;86.20
77583;BME280;66726;52.388;9.986;2023-01-31T04:25:08;101324.13;;;2.77;86.50
77583;BME280;66726;52.388;9.986;2023-01-31T04:27:38;101331.09;;;2.78;86.33
77583;BME280;66726;52.388;9.986;2023-01-31T04:30:08;101316.19;;;2.77;86.63
77583;BME280;66726;52.388;9.986;2023-01-31T04:32:36;101328.63;;;2.75;86.12
77583;BME280;66726;52.388;9.986;2023-01-31T04:35:05;101331.41;;;2.73;85.84
77583;BME280;66726;52.388;9.986;2023-01-31T04:37:33;101322.34;;;2.77;86.02
77583;BME280;66726;52.388;9.986;2023-01-31T04:40:01;101321.69;;;2.74;85.88
77583;BME280;66726;52.388;9.986;2023-01-31T04:42:29;101333.94;;;2.75;86.07
77583;BME280;66726;52.388;9.986;2023-01-31T04:44:59;101321.28;;;2.80;84.92
77583;BME280;66726;52.388;9.986;2023-01-31T04:47:27;101333.94;;;2.75;85.70
77583;BME280;66726;52.388;9.986;2023-01-31T04:49:55;101333.94;;;2.75;85.63
77583;BME280;66726;52.388;9.986;2023-01-31T04:52:23;101321.47;;;2.77;85.27
77583;BME280;66726;52.388;9.986;2023-01-31T04:54:51;101328.44;;;2.78;85.03
77583;BME280;66726;52.388;9.986;2023-01-31T04:57:19;101325.34;;;2.71;85.37
77583;BME280;66726;52.388;9.986;2023-01-31T04:59:47;101334.91;;;2.74;85.42
77583;BME280;66726;52.388;9.986;2023-01-31T05:02:17;101338.47;;;2.73;85.25
77583;BME280;66726;52.388;9.986;2023-01-31T05:04:45;101346.41;;;2.73;85.02
77583;BME280;66726;52.388;9.986;2023-01-31T05:07:13;101336.75;;;2.72;85.25
77583;BME280;66726;52.388;9.986;2023-01-31T05:09:41;101340.25;;;2.72;85.20
77583;BME280;66726;52.388;9.986;2023-01-31T05:12:10;101343.00;;;2.71;84.87
77583;BME280;66726;52.388;9.986;2023-01-31T05:14:38;101335.84;;;2.73;84.64
77583;BME280;66726;52.388;9.986;2023-01-31T05:17:06;101341.59;;;2.79;84.28
77583;BME280;66726;52.388;9.986;2023-01-31T05:19:35;101335.25;;;2.82;84.06
77583;BME280;66726;52.388;9.986;2023-01-31T05:22:04;101330.81;;;2.82;84.33
77583;BME280;66726;52.388;9.986;2023-01-31T05:24:33;101327.22;;;2.83;83.70
77583;BME280;66726;52.388;9.986;2023-01-31T05:27:02;101337.03;;;2.81;83.82
77583;BME280;66726;52.388;9.986;2023-01-31T05:29:32;101334.38;;;2.81;84.28
77583;BME280;66726;52.388;9.986;2023-01-31T05:32:01;101329.75;;;2.85;83.99
77583;BME280;66726;52.388;9.986;2023-01-31T05:34:30;101329.56;;;2.88;83.58
77583;BME280;66726;52.388;9.986;2023-01-31T05:37:01;101318.97;;;2.88;83.90
77583;BME280;66726;52.388;9.986;2023-01-31T05:39:30;101326.91;;;2.88;83.72
77583;BME280;66726;52.388;9.986;2023-01-31T05:41:59;101333.06;;;2.88;82.92
77583;BME280;66726;52.388;9.986;2023-01-31T05:44:27;101331.28;;;2.89;83.49
77583;BME280;66726;52.388;9.986;2023-01-31T05:46:55;101337.00;;;2.95;83.05
77583;BME280;66726;52.388;9.986;2023-01-31T05:49:23;101335.34;;;2.94;83.13
77583;BME280;66726;52.388;9.986;2023-01-31T05:51:51;101331.66;;;2.97;83.30
77583;BME280;66726;52.388;9.986;2023-01-31T05:54:21;101329.66;;;3.00;83.04
77583;BME280;66726;52.388;9.986;2023-01-31T05:56:49;101330.69;;;2.98;82.91
77583;BME280;66726;52.388;9.986;2023-01-31T05:59:17;101331.31;;;3.01;83.15
77583;BME280;66726;52.388;9.986;2023-01-31T06:01:46;101327.09;;;2.99;82.91
77583;BME280;66726;52.388;9.986;2023-01-31T06:04:16;101322.00;;;2.96;83.63
77583;BME280;66726;52.388;9.986;2023-01-31T06:06:44;101320.28;;;2.95;83.47
77583;BME280;66726;52.388;9.986;2023-01-31T06:09:12;101322.13;;;2.94;83.41
77583;BME280;66726;52.388;9.986;2023-01-31T06:11:42;101317.97;;;2.90;83.56
77583;BME280;66726;52.388;9.986;2023-01-31T06:14:10;101313.53;;;2.91;83.88
77583;BME280;66726;52.388;9.986;2023-01-31T06:16:38;101321.34;;;2.92;83.27
77583;BME280;66726;52.388;9.986;2023-01-31T06:19:07;101314.25;;;2.93;83.37
77583;BME280;66726;52.388;9.986;2023-01-31T06:21:35;101319.63;;;2.91;83.80
77583;BME280;66726;52.388;9.986;2023-01-31T06:24:04;101323.25;;;2.90;83.99
77583;BME280;66726;52.388;9.986;2023-01-31T06:26:32;101324.84;;;2.93;83.58
77583;BME280;66726;52.388;9.986;2023-01-31T06:29:02;101315.19;;;2.92;83.87
77583;BME280;66726;52.388;9.986;2023-01-31T06:31:30;101317.56;;;2.96;83.55
77583;BME280;66726;52.388;9.986;2023-01-31T06:33:59;101312.34;;;2.95;83.78
77583;BME280;66726;52.388;9.986;2023-01-31T06:36:27;101318.41;;;2.97;83.65
77583;BME280;66726;52.388;9.986;2023-01-31T06:38:55;101311.34;;;2.97;83.41
77583;BME280;66726;52.388;9.986;2023-01-31T06:41:23;101311.22;;;2.99;83.43
77583;BME280;66726;52.388;9.986;2023-01-31T06:43:51;101302.34;;;3.00;83.50
77583;BME280;66726;52.388;9.986;2023-01-31T06:46:20;101308.56;;;2.99;83.99
77583;BME280;66726;52.388;9.986;2023-01-31T06:48:48;101296.78;;;3.04;83.82
77583;BME280;66726;52.388;9.986;2023-01-31T06:51:16;101295.91;;;3.04;83.70
77583;BME280;66726;52.388;9.986;2023-01-31T06:53:44;101287.00;;;3.05;83.19
77583;BME280;66726;52.388;9.986;2023-01-31T06:56:13;101277.19;;;3.07;83.80
77583;BME280;66726;52.388;9.986;2023-01-31T06:58:41;101276.16;;;3.10;83.50
77583;BME280;66726;52.388;9.986;2023-01-31T07:01:12;101278.69;;;3.11;83.20
77583;BME280;66726;52.388;9.986;2023-01-31T07:03:42;101276.78;;;3.13;82.72
77583;BME280;66726;52.388;9.986;2023-01-31T07:06:10;101263.28;;;3.18;82.75
77583;BME280;66726;52.388;9.986;2023-01-31T07:08:39;101270.25;;;3.19;83.43
77583;BME280;66726;52.388;9.986;2023-01-31T07:11:07;101269.44;;;3.18;83.19
77583;BME280;66726;52.388;9.986;2023-01-31T07:13:35;101260.50;;;3.19;83.23
77583;BME280;66726;52.388;9.986;2023-01-31T07:16:04;101252.69;;;3.18;83.56
77583;BME280;66726;52.388;9.986;2023-01-31T07:18:32;101248.34;;;3.17;82.95
77583;BME280;66726;52.388;9.986;2023-01-31T07:21:02;101228.13;;;3.16;83.32
77583;BME280;66726;52.388;9.986;2023-01-31T07:23:30;101226.44;;;3.15;83.39
77583;BME280;66726;52.388;9.986;2023-01-31T07:26:01;101220.31;;;3.14;83.74
77583;BME280;66726;52.388;9.986;2023-01-31T07:28:29;101211.38;;;3.15;84.30
77583;BME280;66726;52.388;9.986;2023-01-31T07:31:03;101204.22;;;3.17;83.87
77583;BME280;66726;52.388;9.986;2023-01-31T07:33:32;101211.22;;;3.18;84.15
77583;BME280;66726;52.388;9.986;2023-01-31T07:36:04;101210.25;;;3.19;84.19
77583;BME280;66726;52.388;9.986;2023-01-31T07:38:34;101207.50;;;3.21;84.59
77583;BME280;66726;52.388;9.986;2023-01-31T07:41:03;101204.56;;;3.25;84.48
77583;BME280;66726;52.388;9.986;2023-01-31T07:43:31;101191.34;;;3.25;84.98
77583;BME280;66726;52.388;9.986;2023-01-31T07:46:00;101183.91;;;3.30;84.64
77583;BME280;66726;52.388;9.986;2023-01-31T07:48:28;101173.78;;;3.37;84.50
77583;BME280;66726;52.388;9.986;2023-01-31T07:50:59;101175.56;;;3.36;85.21
77583;BME280;66726;52.388;9.986;2023-01-31T07:53:32;101184.56;;;3.46;84.34
77583;BME280;66726;52.388;9.986;2023-01-31T07:56:10;101167.84;;;3.46;84.67
77583;BME280;66726;52.388;9.986;2023-01-31T07:58:40;101172.75;;;3.52;84.45
77583;BME280;66726;52.388;9.986;2023-01-31T08:01:13;101176.31;;;3.64;83.86
77583;BME280;66726;52.388;9.986;2023-01-31T08:04:00;101168.72;;;3.72;83.73
77583;BME280;66726;52.388;9.986;2023-01-31T08:06:45;101169.22;;;3.77;83.26
77583;BME280;66726;52.388;9.986;2023-01-31T08:09:15;101166.16;;;3.83;84.13
77583;BME280;66726;52.388;9.986;2023-01-31T08:11:43;101157.78;;;3.89;83.38
77583;BME280;66726;52.388;9.986;2023-01-31T08:14:12;101158.00;;;3.86;83.01
77583;BME280;66726;52.388;9.986;2023-01-31T08:16:40;101148.91;;;3.90;83.17
77583;BME280;66726;52.388;9.986;2023-01-31T08:19:08;101156.84;;;3.90;82.41
77583;BME280;66726;52.388;9.986;2023-01-31T08:21:36;101146.88;;;3.93;83.06
77583;BME280;66726;52.388;9.986;2023-01-31T08:24:05;101143.16;;;3.96;83.39
77583;BME280;66726;52.388;9.986;2023-01-31T08:26:34;101144.75;;;3.98;82.86
77583;BME280;66726;52.388;9.986;2023-01-31T08:29:02;101133.69;;;4.04;82.59
77583;BME280;66726;52.388;9.986;2023-01-31T08:31:31;101136.66;;;4.13;81.44
77583;BME280;66726;52.388;9.986;2023-01-31T08:33:59;101137.59;;;4.12;81.86
77583;BME280;66726;52.388;9.986;2023-01-31T08:36:30;101132.94;;;4.15;81.41
77583;BME280;66726;52.388;9.986;2023-01-31T08:38:59;101145.03;;;4.19;82.00
77583;BME280;66726;52.388;9.986;2023-01-31T08:41:28;101126.25;;;4.22;81.68
77583;BME280;66726;52.388;9.986;2023-01-31T08:43:58;101124.13;;;4.27;81.74
77583;BME280;66726;52.388;9.986;2023-01-31T08:46:33;101116.66;;;4.32;81.02
77583;BME280;66726;52.388;9.986;2023-01-31T08:49:04;101108.50;;;4.35;80.93
77583;BME280;66726;52.388;9.986;2023-01-31T08:51:33;101112.13;;;4.34;80.41
77583;BME280;66726;52.388;9.986;2023-01-31T08:54:01;101108.28;;;4.38;80.49
77583;BME280;66726;52.388;9.986;2023-01-31T08:56:29;101106.25;;;4.42;80.35
77583;BME280;66726;52.388;9.986;2023-01-31T08:58:58;101097.09;;;4.46;80.39
77583;BME280;66726;52.388;9.986;2023-01-31T09:01:26;101082.06;;;4.46;80.44
77583;BME280;66726;52.388;9.986;2023-01-31T09:03:55;101075.56;;;4.50;80.48
77583;BME280;66726;52.388;9.986;2023-01-31T09:06:25;101080.88;;;4.50;80.83
77583;BME280;66726;52.388;9.986;2023-01-31T09:08:55;101079.91;;;4.51;80.01
77583;BME280;66726;52.388;9.986;2023-01-31T09:11:27;101081.59;;;4.52;79.99
77583;BME280;66726;52.388;9.986;2023-01-31T09:13:57;101078.50;;;4.58;79.48
77583;BME280;66726;52.388;9.986;2023-01-31T09:16:26;101068.84;;;4.57;79.26
77583;BME280;66726;52.388;9.986;2023-01-31T09:18:55;101072.22;;;4.59;79.59
77583;BME280;66726;52.388;9.986;2023-01-31T09:21:23;101069.56;;;4.59;79.27
77583;BME280;66726;52.388;9.986;2023-01-31T09:23:55;101076.56;;;4.60;79.04
77583;BME280;66726;52.388;9.986;2023-01-31T09:26:24;101074.88;;;4.59;79.18
77583;BME280;66726;52.388;9.986;2023-01-31T09:28:52;101084.75;;;4.57;79.86
77583;BME280;66726;52.388;9.986;2023-01-31T09:31:23;101077.53;;;4.59;79.99
77583;BME280;66726;52.388;9.986;2023-01-31T09:33:51;101090.06;;;4.57;79.51
77583;BME280;66726;52.388;9.986;2023-01-31T09:36:22;101082.22;;;4.56;80.25
77583;BME280;66726;52.388;9.986;2023-01-31T09:38:54;101074.38;;;4.54;80.03
77583;BME280;66726;52.388;9.986;2023-01-31T09:41:30;101081.59;;;4.52;79.94
77583;BME280;66726;52.388;9.986;2023-01-31T09:44:04;101062.31;;;4.50;80.63
77583;BME280;66726;52.388;9.986;2023-01-31T09:46:39;101057.34;;;4.46;82.00
77583;BME280;66726;52.388;9.986;2023-01-31T09:49:16;101066.84;;;4.37;83.04
77583;BME280;66726;52.388;9.986;2023-01-31T09:51:51;101065.59;;;4.30;84.64
77583;BME280;66726;52.388;9.986;2023-01-31T09:54:28;101056.50;;;4.22;84.99
77583;BME280;66726;52.388;9.986;2023-01-31T09:57:07;101039.34;;;4.15;85.81
77583;BME280;66726;52.388;9.986;2023-01-31T09:59:47;101026.69;;;4.07;87.11
77583;BME280;66726;52.388;9.986;2023-01-31T10:02:48;101035.81;;;4.03;87.70
77583;BME280;66726;52.388;9.986;2023-01-31T10:05:26;101039.41;;;4.02;87.43
77583;BME280;66726;52.388;9.986;2023-01-31T10:08:11;101032.63;;;3.98;88.25
77583;BME280;66726;52.388;9.986;2023-01-31T10:10:46;101027.31;;;3.98;88.10
77583;BME280;66726;52.388;9.986;2023-01-31T10:13:23;101020.13;;;4.00;87.68
77583;BME280;66726;52.388;9.986;2023-01-31T10:16:01;101004.47;;;3.97;87.87
77583;BME280;66726;52.388;9.986;2023-01-31T10:18:36;101009.75;;;3.97;87.46
77583;BME280;66726;52.388;9.986;2023-01-31T10:21:13;101000.59;;;4.01;86.89
77583;BME280;66726;52.388;9.986;2023-01-31T10:23:51;101004.88;;;4.03;86.85
77583;BME280;66726;52.388;9.986;2023-01-31T10:26:26;100995.13;;;4.04;86.86
77583;BME280;66726;52.388;9.986;2023-01-31T10:29:01;100989.69;;;4.05;86.92
77583;BME280;66726;52.388;9.986;2023-01-31T10:31:39;100991.50;;;4.05;86.16
77583;BME280;66726;52.388;9.986;2023-01-31T10:34:17;100980.66;;;4.08;85.99
77583;BME280;66726;52.388;9.986;2023-01-31T10:36:53;100992.97;;;4.09;85.80
77583;BME280;66726;52.388;9.986;2023-01-31T10:39:28;100986.34;;;4.15;86.15
77583;BME280;66726;52.388;9.986;2023-01-31T10:42:14;100972.47;;;4.11;85.87
77583;BME280;66726;52.388;9.986;2023-01-31T10:44:53;100962.63;;;4.13;85.36
77583;BME280;66726;52.388;9.986;2023-01-31T10:47:31;100962.72;;;4.12;85.80
77583;BME280;66726;52.388;9.986;2023-01-31T10:50:12;100959.03;;;4.14;85.64
77583;BME280;66726;52.388;9.986;2023-01-31T10:52:57;100955.41;;;4.15;85.42
77583;BME280;66726;52.388;9.986;2023-01-31T10:55:51;100950.09;;;4.15;85.71
77583;BME280;66726;52.388;9.986;2023-01-31T10:58:23;100941.19;;;4.16;85.22
77583;BME280;66726;52.388;9.986;2023-01-31T11:00:51;100930.88;;;4.24;85.43
77583;BME280;66726;52.388;9.986;2023-01-31T11:03:20;100921.09;;;4.25;85.46
77583;BME280;66726;52.388;9.986;2023-01-31T11:05:51;100914.00;;;4.25;85.58
77583;BME280;66726;52.388;9.986;2023-01-31T11:08:29;100913.31;;;4.34;84.81
77583;BME280;66726;52.388;9.986;2023-01-31T11:11:06;100920.75;;;4.29;85.31
77583;BME280;66726;52.388;9.986;2023-01-31T11:13:35;100910.69;;;4.34;85.30
77583;BME280;66726;52.388;9.986;2023-01-31T11:16:07;100900.78;;;4.36;84.90
77583;BME280;66726;52.388;9.986;2023-01-31T11:18:43;100893.34;;;4.41;84.86
77583;BME280;66726;52.388;9.986;2023-01-31T11:21:22;100892.59;;;4.39;84.98
77583;BME280;66726;52.388;9.986;2023-01-31T11:23:58;100903.72;;;4.44;84.49
77583;BME280;66726;52.388;9.986;2023-01-31T11:26:32;100900.81;;;4.47;84.80
77583;BME280;66726;52.388;9.986;2023-01-31T11:29:06;100893.59;;;4.49;84.82
77583;BME280;66726;52.388;9.986;2023-01-31T11:31:40;100892.63;;;4.50;84.31
77583;BME280;66726;52.388;9.986;2023-01-31T11:34:21;100885.38;;;4.52;84.57
77583;BME280;66726;52.388;9.986;2023-01-31T11:36:51;100884.09;;;4.58;84.43
77583;BME280;66726;52.388;9.986;2023-01-31T11:39:27;100879.50;;;4.60;83.92
77583;BME280;66726;52.388;9.986;2023-01-31T11:42:05;100881.19;;;4.61;84.29
77583;BME280;66726;52.388;9.986;2023-01-31T11:44:34;100862.28;;;4.66;83.58
77583;BME280;66726;52.388;9.986;2023-01-31T11:47:04;100862.41;;;4.64;84.70
77583;BME280;66726;52.388;9.986;2023-01-31T11:49:41;100869.50;;;4.64;84.67
77583;BME280;66726;52.388;9.986;2023-01-31T11:52:19;100859.41;;;4.69;83.91
77583;BME280;66726;52.388;9.986;2023-01-31T11:54:53;100843.25;;;4.72;83.79
77583;BME280;66726;52.388;9.986;2023-01-31T11:57:27;100846.84;;;4.71;84.30
77583;BME280;66726;52.388;9.986;2023-01-31T12:00:00;100837.19;;;4.70;84.32
77583;BME280;66726;52.388;9.986;2023-01-31T12:02:35;100826.72;;;4.68;84.62
77583;BME280;66726;52.388;9.986;2023-01-31T12:05:10;100821.28;;;4.70;84.46
77583;BME280;66726;52.388;9.986;2023-01-31T12:07:47;100817.69;;;4.71;84.07
77583;BME280;66726;52.388;9.986;2023-01-31T12:10:34;100824.91;;;4.69;84.84
77583;BME280;66726;52.388;9.986;2023-01-31T12:13:13;100826.72;;;4.68;84.95
77583;BME280;66726;52.388;9.986;2023-01-31T12:15:51;100829.13;;;4.71;84.96
77583;BME280;66726;52.388;9.986;2023-01-31T12:18:41;100819.38;;;4.72;84.80
77583;BME280;66726;52.388;9.986;2023-01-31T12:21:26;100803.31;;;4.73;84.49
77583;BME280;66726;52.388;9.986;2023-01-31T12:24:09;100798.63;;;4.77;84.16
77583;BME280;66726;52.388;9.986;2023-01-31T12:26:47;100798.75;;;4.75;84.52
77583;BME280;66726;52.388;9.986;2023-01-31T12:30:02;100802.25;;;4.76;84.45
77583;BME280;66726;52.388;9.986;2023-01-31T12:32:55;100807.56;;;4.76;84.56
77583;BME280;66726;52.388;9.986;2023-01-31T12:36:03;100797.56;;;4.79;83.97
77583;BME280;66726;52.388;9.986;2023-01-31T12:38:59;100796.47;;;4.82;84.12
77583;BME280;66726;52.388;9.986;2023-01-31T12:41:35;100797.41;;;4.81;84.41
77583;BME280;66726;52.388;9.986;2023-01-31T12:44:25;100808.16;;;4.79;84.40
77583;BME280;66726;52.388;9.986;2023-01-31T12:47:25;100800.06;;;4.81;84.25
77583;BME280;66726;52.388;9.986;2023-01-31T12:50:27;100798.63;;;4.77;84.41
77583;BME280;66726;52.388;9.986;2023-01-31T12:53:20;100800.56;;;4.75;85.03
77583;BME280;66726;52.388;9.986;2023-01-31T12:56:25;100805.63;;;4.78;84.62
77583;BME280;66726;52.388;9.986;2023-01-31T12:59:05;100810.22;;;4.76;85.02
77583;BME280;66726;52.388;9.986;2023-01-31T13:01:49;100808.38;;;4.76;85.48
77583;BME280;66726;52.388;9.986;2023-01-31T13:04:38;100814.91;;;4.72;85.96
77583;BME280;66726;52.388;9.986;2023-01-31T13:07:15;100810.66;;;4.70;86.52
77583;BME280;66726;52.388;9.986;2023-01-31T13:09:49;100816.38;;;4.65;87.76
77583;BME280;66726;52.388;9.986;2023-01-31T13:12:24;100814.06;;;4.60;88.37
77583;BME280;66726;52.388;9.986;2023-01-31T13:15:01;100802.00;;;4.56;88.81
77583;BME280;66726;52.388;9.986;2023-01-31T13:17:33;100811.16;;;4.52;89.57
77583;BME280;66726;52.388;9.986;2023-01-31T13:20:22;100799.00;;;4.50;90.40
77583;BME280;66726;52.388;9.986;2023-01-31T13:22:56;100794.03;;;4.45;90.26
77583;BME280;66726;52.388;9.986;2023-01-31T13:25:36;100798.63;;;4.43;90.54
77583;BME280;66726;52.388;9.986;2023-01-31T13:28:15;100801.03;;;4.46;90.61
77583;BME280;66726;52.388;9.986;2023-01-31T13:30:50;100796.81;;;4.44;91.24
77583;BME280;66726;52.388;9.986;2023-01-31T13:33:34;100796.69;;;4.45;91.11
77583;BME280;66726;52.388;9.986;2023-01-31T13:36:17;100794.03;;;4.45;90.86
77583;BME280;66726;52.388;9.986;2023-01-31T13:38:49;100807.28;;;4.45;91.49
77583;BME280;66726;52.388;9.986;2023-01-31T13:41:26;100800.31;;;4.44;91.07
77583;BME280;66726;52.388;9.986;2023-01-31T13:43:57;100782.38;;;4.48;90.94